sensor_id;sensor_type;location;lat;lon;timestamp;temperature;humidity
75621;DHT22;64574;48.506;-2.750;2024-01-11T00:01:26;1.40;60.20
75621;DHT22;64574;48.506;-2.750;2024-01-11T00:03:52;1.40;60.70
75621;DHT22;64574;48.506;-2.750;2024-01-11T00:06:17;1.50;60.40
75621;DHT22;64574;48.506;-2.750;2024-01-11T00:08:43;1.40;60.10
75621;DHT22;64574;48.506;-2.750;2024-01-11T00:11:10;1.40;60.40
75621;DHT22;64574;48.506;-2.750;2024-01-11T00:13:35;1.30;60.80
75621;DHT22;64574;48.506;-2.750;2024-01-11T00:16:01;1.20;61.00
75621;DHT22;64574;48.506;-2.750;2024-01-11T00:18:27;1.10;61.30
75621;DHT22;64574;48.506;-2.750;2024-01-11T00:20:52;1.20;61.20
75621;DHT22;64574;48.506;-2.750;2024-01-11T00:23:18;1.20;61.40
75621;DHT22;64574;48.506;-2.750;2024-01-11T00:25:44;1.20;61.40
75621;DHT22;64574;48.506;-2.750;2024-01-11T00:28:09;1.30;61.30
75621;DHT22;64574;48.506;-2.750;2024-01-11T00:30:35;1.30;61.20
75621;DHT22;64574;48.506;-2.750;2024-01-11T00:33:00;1.20;61.40
75621;DHT22;64574;48.506;-2.750;2024-01-11T00:35:26;1.20;61.40
75621;DHT22;64574;48.506;-2.750;2024-01-11T00:37:52;1.20;61.70
75621;DHT22;64574;48.506;-2.750;2024-01-11T00:40:17;1.10;61.70
75621;DHT22;64574;48.506;-2.750;2024-01-11T00:42:43;1.20;61.80
75621;DHT22;64574;48.506;-2.750;2024-01-11T00:45:08;1.10;61.60
75621;DHT22;64574;48.506;-2.750;2024-01-11T00:47:34;1.20;61.80
75621;DHT22;64574;48.506;-2.750;2024-01-11T00:50:00;1.20;61.70
75621;DHT22;64574;48.506;-2.750;2024-01-11T00:52:25;1.10;61.90
75621;DHT22;64574;48.506;-2.750;2024-01-11T00:54:57;1.00;62.20
75621;DHT22;64574;48.506;-2.750;2024-01-11T00:57:22;1.10;62.20
75621;DHT22;64574;48.506;-2.750;2024-01-11T00:59:48;1.10;62.10
75621;DHT22;64574;48.506;-2.750;2024-01-11T01:02:14;1.00;62.30
75621;DHT22;64574;48.506;-2.750;2024-01-11T01:04:39;1.00;62.50
75621;DHT22;64574;48.506;-2.750;2024-01-11T01:07:05;1.00;62.80
75621;DHT22;64574;48.506;-2.750;2024-01-11T01:09:31;1.00;62.50
75621;DHT22;64574;48.506;-2.750;2024-01-11T01:11:57;1.00;62.80
75621;DHT22;64574;48.506;-2.750;2024-01-11T01:14:22;1.00;62.50
75621;DHT22;64574;48.506;-2.750;2024-01-11T01:16:48;1.00;62.70
75621;DHT22;64574;48.506;-2.750;2024-01-11T01:19:13;0.90;63.00
75621;DHT22;64574;48.506;-2.750;2024-01-11T01:21:39;0.90;63.30
75621;DHT22;64574;48.506;-2.750;2024-01-11T01:24:05;0.90;63.10
75621;DHT22;64574;48.506;-2.750;2024-01-11T01:26:30;0.90;63.10
75621;DHT22;64574;48.506;-2.750;2024-01-11T01:28:56;0.90;63.50
75621;DHT22;64574;48.506;-2.750;2024-01-11T01:31:22;0.80;63.50
75621;DHT22;64574;48.506;-2.750;2024-01-11T01:33:47;0.80;63.60
75621;DHT22;64574;48.506;-2.750;2024-01-11T01:36:13;0.80;63.70
75621;DHT22;64574;48.506;-2.750;2024-01-11T01:38:39;0.70;63.70
75621;DHT22;64574;48.506;-2.750;2024-01-11T01:41:04;0.80;64.00
75621;DHT22;64574;48.506;-2.750;2024-01-11T01:43:31;0.80;63.70
75621;DHT22;64574;48.506;-2.750;2024-01-11T01:45:56;0.70;64.00
75621;DHT22;64574;48.506;-2.750;2024-01-11T01:48:22;0.70;64.10
75621;DHT22;64574;48.506;-2.750;2024-01-11T01:50:48;0.80;64.20
75621;DHT22;64574;48.506;-2.750;2024-01-11T01:53:23;0.80;63.90
75621;DHT22;64574;48.506;-2.750;2024-01-11T01:55:51;0.70;64.20
75621;DHT22;64574;48.506;-2.750;2024-01-11T01:58:18;0.80;64.00
75621;DHT22;64574;48.506;-2.750;2024-01-11T02:00:45;0.80;64.00
75621;DHT22;64574;48.506;-2.750;2024-01-11T02:03:13;0.60;64.10
75621;DHT22;64574;48.506;-2.750;2024-01-11T02:05:40;0.50;64.20
75621;DHT22;64574;48.506;-2.750;2024-01-11T02:08:07;0.40;64.70
75621;DHT22;64574;48.506;-2.750;2024-01-11T02:10:34;0.30;65.00
75621;DHT22;64574;48.506;-2.750;2024-01-11T02:13:01;0.30;65.30
75621;DHT22;64574;48.506;-2.750;2024-01-11T02:15:26;0.40;65.20
75621;DHT22;64574;48.506;-2.750;2024-01-11T02:17:52;0.50;64.90
75621;DHT22;64574;48.506;-2.750;2024-01-11T02:20:17;0.60;64.40
75621;DHT22;64574;48.506;-2.750;2024-01-11T02:22:47;0.70;63.80
75621;DHT22;64574;48.506;-2.750;2024-01-11T02:25:15;0.80;63.70
75621;DHT22;64574;48.506;-2.750;2024-01-11T02:27:45;0.60;63.60
75621;DHT22;64574;48.506;-2.750;2024-01-11T02:30:12;0.60;63.60
75621;DHT22;64574;48.506;-2.750;2024-01-11T02:32:38;0.60;64.00
75621;DHT22;64574;48.506;-2.750;2024-01-11T02:35:04;0.80;63.60
75621;DHT22;64574;48.506;-2.750;2024-01-11T02:37:30;0.70;63.50
75621;DHT22;64574;48.506;-2.750;2024-01-11T02:39:56;0.60;63.80
75621;DHT22;64574;48.506;-2.750;2024-01-11T02:42:22;0.40;64.30
75621;DHT22;64574;48.506;-2.750;2024-01-11T02:44:47;0.20;64.70
75621;DHT22;64574;48.506;-2.750;2024-01-11T02:47:13;0.20;65.10
75621;DHT22;64574;48.506;-2.750;2024-01-11T02:49:39;0.00;65.30
75621;DHT22;64574;48.506;-2.750;2024-01-11T02:52:05;0.10;65.40
75621;DHT22;64574;48.506;-2.750;2024-01-11T02:54:30;0.30;64.80
75621;DHT22;64574;48.506;-2.750;2024-01-11T02:56:56;0.20;64.60
75621;DHT22;64574;48.506;-2.750;2024-01-11T02:59:23;0.00;64.90
75621;DHT22;64574;48.506;-2.750;2024-01-11T03:01:49;0.20;64.80
75621;DHT22;64574;48.506;-2.750;2024-01-11T03:04:16;0.20;64.70
75621;DHT22;64574;48.506;-2.750;2024-01-11T03:06:42;0.20;64.70
75621;DHT22;64574;48.506;-2.750;2024-01-11T03:09:08;0.30;64.90
75621;DHT22;64574;48.506;-2.750;2024-01-11T03:11:33;0.50;64.00
75621;DHT22;64574;48.506;-2.750;2024-01-11T03:13:59;0.60;63.30
75621;DHT22;64574;48.506;-2.750;2024-01-11T03:16:24;0.50;63.00
75621;DHT22;64574;48.506;-2.750;2024-01-11T03:18:50;0.50;63.00
75621;DHT22;64574;48.506;-2.750;2024-01-11T03:21:16;0.50;62.80
75621;DHT22;64574;48.506;-2.750;2024-01-11T03:23:42;0.60;62.60
75621;DHT22;64574;48.506;-2.750;2024-01-11T03:26:17;0.60;62.00
75621;DHT22;64574;48.506;-2.750;2024-01-11T03:28:43;0.60;61.50
75621;DHT22;64574;48.506;-2.750;2024-01-11T03:31:09;0.70;61.20
75621;DHT22;64574;48.506;-2.750;2024-01-11T03:33:35;0.60;61.20
75621;DHT22;64574;48.506;-2.750;2024-01-11T03:36:08;0.60;61.10
75621;DHT22;64574;48.506;-2.750;2024-01-11T03:38:34;0.60;61.20
75621;DHT22;64574;48.506;-2.750;2024-01-11T03:40:59;0.60;61.00
75621;DHT22;64574;48.506;-2.750;2024-01-11T03:43:25;0.50;61.20
75621;DHT22;64574;48.506;-2.750;2024-01-11T03:45:51;0.60;61.30
75621;DHT22;64574;48.506;-2.750;2024-01-11T03:48:16;0.60;61.20
75621;DHT22;64574;48.506;-2.750;2024-01-11T03:50:42;0.60;61.10
75621;DHT22;64574;48.506;-2.750;2024-01-11T03:53:08;0.60;61.10
75621;DHT22;64574;48.506;-2.750;2024-01-11T03:55:34;0.60;61.10
75621;DHT22;64574;48.506;-2.750;2024-01-11T03:57:59;0.80;61.00
75621;DHT22;64574;48.506;-2.750;2024-01-11T04:00:25;0.70;60.80
75621;DHT22;64574;48.506;-2.750;2024-01-11T04:02:50;0.70;61.00
75621;DHT22;64574;48.506;-2.750;2024-01-11T04:05:16;0.70;61.00
75621;DHT22;64574;48.506;-2.750;2024-01-11T04:07:42;0.60;61.00
75621;DHT22;64574;48.506;-2.750;2024-01-11T04:10:08;0.70;61.00
75621;DHT22;64574;48.506;-2.750;2024-01-11T04:12:36;0.70;61.00
75621;DHT22;64574;48.506;-2.750;2024-01-11T04:15:05;0.60;61.60
75621;DHT22;64574;48.506;-2.750;2024-01-11T04:17:31;0.60;61.60
75621;DHT22;64574;48.506;-2.750;2024-01-11T04:19:57;0.60;61.90
75621;DHT22;64574;48.506;-2.750;2024-01-11T04:22:23;0.60;62.20
75621;DHT22;64574;48.506;-2.750;2024-01-11T04:24:48;0.60;62.50
75621;DHT22;64574;48.506;-2.750;2024-01-11T04:27:14;0.60;62.70
75621;DHT22;64574;48.506;-2.750;2024-01-11T04:29:39;0.60;63.10
75621;DHT22;64574;48.506;-2.750;2024-01-11T04:32:05;0.60;63.30
75621;DHT22;64574;48.506;-2.750;2024-01-11T04:34:31;0.60;63.40
75621;DHT22;64574;48.506;-2.750;2024-01-11T04:36:56;0.50;63.60
75621;DHT22;64574;48.506;-2.750;2024-01-11T04:39:22;0.60;64.00
75621;DHT22;64574;48.506;-2.750;2024-01-11T04:41:47;0.60;64.10
75621;DHT22;64574;48.506;-2.750;2024-01-11T04:44:13;0.70;64.10
75621;DHT22;64574;48.506;-2.750;2024-01-11T04:46:39;0.80;64.20
75621;DHT22;64574;48.506;-2.750;2024-01-11T04:49:04;0.60;64.30
75621;DHT22;64574;48.506;-2.750;2024-01-11T04:51:30;0.70;64.50
75621;DHT22;64574;48.506;-2.750;2024-01-11T04:53:55;0.80;64.70
75621;DHT22;64574;48.506;-2.750;2024-01-11T04:56:21;0.90;64.70
75621;DHT22;64574;48.506;-2.750;2024-01-11T04:58:47;1.00;64.70
75621;DHT22;64574;48.506;-2.750;2024-01-11T05:01:14;1.00;65.00
75621;DHT22;64574;48.506;-2.750;2024-01-11T05:03:41;1.10;64.80
75621;DHT22;64574;48.506;-2.750;2024-01-11T05:06:06;1.10;64.90
75621;DHT22;64574;48.506;-2.750;2024-01-11T05:08:32;1.00;65.20
75621;DHT22;64574;48.506;-2.750;2024-01-11T05:10:58;1.10;65.00
75621;DHT22;64574;48.506;-2.750;2024-01-11T05:13:23;1.10;65.30
75621;DHT22;64574;48.506;-2.750;2024-01-11T05:15:49;1.20;65.20
75621;DHT22;64574;48.506;-2.750;2024-01-11T05:18:15;1.20;65.10
75621;DHT22;64574;48.506;-2.750;2024-01-11T05:20:40;1.20;65.30
75621;DHT22;64574;48.506;-2.750;2024-01-11T05:23:06;1.20;65.40
75621;DHT22;64574;48.506;-2.750;2024-01-11T05:25:32;1.10;65.40
75621;DHT22;64574;48.506;-2.750;2024-01-11T05:28:00;1.10;65.40
75621;DHT22;64574;48.506;-2.750;2024-01-11T05:30:25;1.20;65.60
75621;DHT22;64574;48.506;-2.750;2024-01-11T05:32:51;1.20;65.40
75621;DHT22;64574;48.506;-2.750;2024-01-11T05:35:16;1.00;65.90
75621;DHT22;64574;48.506;-2.750;2024-01-11T05:37:42;1.00;66.20
75621;DHT22;64574;48.506;-2.750;2024-01-11T05:40:08;1.10;66.00
75621;DHT22;64574;48.506;-2.750;2024-01-11T05:42:34;1.10;66.10
75621;DHT22;64574;48.506;-2.750;2024-01-11T05:44:59;1.10;66.10
75621;DHT22;64574;48.506;-2.750;2024-01-11T05:47:25;1.00;66.40
75621;DHT22;64574;48.506;-2.750;2024-01-11T05:49:50;1.00;66.60
75621;DHT22;64574;48.506;-2.750;2024-01-11T05:52:16;1.10;66.40
75621;DHT22;64574;48.506;-2.750;2024-01-11T05:54:42;1.10;66.50
75621;DHT22;64574;48.506;-2.750;2024-01-11T05:57:07;1.10;66.50
75621;DHT22;64574;48.506;-2.750;2024-01-11T05:59:33;1.00;66.80
75621;DHT22;64574;48.506;-2.750;2024-01-11T06:01:59;1.20;66.70
75621;DHT22;64574;48.506;-2.750;2024-01-11T06:04:26;1.20;66.40
75621;DHT22;64574;48.506;-2.750;2024-01-11T06:06:52;1.20;66.50
75621;DHT22;64574;48.506;-2.750;2024-01-11T06:09:17;1.20;66.60
75621;DHT22;64574;48.506;-2.750;2024-01-11T06:11:43;1.10;66.80
75621;DHT22;64574;48.506;-2.750;2024-01-11T06:14:09;1.20;67.00
75621;DHT22;64574;48.506;-2.750;2024-01-11T06:16:34;1.20;66.70
75621;DHT22;64574;48.506;-2.750;2024-01-11T06:19:00;1.30;66.80
75621;DHT22;64574;48.506;-2.750;2024-01-11T06:21:26;1.40;67.00
75621;DHT22;64574;48.506;-2.750;2024-01-11T06:23:52;1.40;67.00
75621;DHT22;64574;48.506;-2.750;2024-01-11T06:26:17;1.40;67.30
75621;DHT22;64574;48.506;-2.750;2024-01-11T06:28:43;1.40;67.50
75621;DHT22;64574;48.506;-2.750;2024-01-11T06:31:12;1.50;67.90
75621;DHT22;64574;48.506;-2.750;2024-01-11T06:33:37;1.60;68.00
75621;DHT22;64574;48.506;-2.750;2024-01-11T06:36:06;1.60;68.30
75621;DHT22;64574;48.506;-2.750;2024-01-11T06:38:35;1.60;68.60
75621;DHT22;64574;48.506;-2.750;2024-01-11T06:41:00;1.60;69.00
75621;DHT22;64574;48.506;-2.750;2024-01-11T06:43:26;1.70;69.10
75621;DHT22;64574;48.506;-2.750;2024-01-11T06:45:52;1.70;69.20
75621;DHT22;64574;48.506;-2.750;2024-01-11T06:48:18;1.60;69.60
75621;DHT22;64574;48.506;-2.750;2024-01-11T06:50:44;1.70;69.90
75621;DHT22;64574;48.506;-2.750;2024-01-11T06:53:10;1.80;69.90
75621;DHT22;64574;48.506;-2.750;2024-01-11T06:55:36;1.80;69.90
75621;DHT22;64574;48.506;-2.750;2024-01-11T06:58:01;1.80;69.80
75621;DHT22;64574;48.506;-2.750;2024-01-11T07:00:27;1.90;70.10
75621;DHT22;64574;48.506;-2.750;2024-01-11T07:02:53;1.90;69.90
75621;DHT22;64574;48.506;-2.750;2024-01-11T07:05:19;1.80;70.20
75621;DHT22;64574;48.506;-2.750;2024-01-11T07:07:45;1.80;70.40
75621;DHT22;64574;48.506;-2.750;2024-01-11T07:10:11;1.80;71.00
75621;DHT22;64574;48.506;-2.750;2024-01-11T07:12:37;1.70;71.30
75621;DHT22;64574;48.506;-2.750;2024-01-11T07:15:04;1.70;71.60
75621;DHT22;64574;48.506;-2.750;2024-01-11T07:17:30;1.80;71.90
75621;DHT22;64574;48.506;-2.750;2024-01-11T07:19:56;1.70;72.10
75621;DHT22;64574;48.506;-2.750;2024-01-11T07:22:22;1.80;72.30
75621;DHT22;64574;48.506;-2.750;2024-01-11T07:24:47;1.80;72.20
75621;DHT22;64574;48.506;-2.750;2024-01-11T07:27:13;1.80;72.20
75621;DHT22;64574;48.506;-2.750;2024-01-11T07:29:39;1.80;72.20
75621;DHT22;64574;48.506;-2.750;2024-01-11T07:32:05;1.80;72.40
75621;DHT22;64574;48.506;-2.750;2024-01-11T07:34:30;1.80;72.60
75621;DHT22;64574;48.506;-2.750;2024-01-11T07:36:56;1.80;72.60
75621;DHT22;64574;48.506;-2.750;2024-01-11T07:39:22;1.80;72.70
75621;DHT22;64574;48.506;-2.750;2024-01-11T07:41:48;1.80;72.70
75621;DHT22;64574;48.506;-2.750;2024-01-11T07:44:14;1.80;72.90
75621;DHT22;64574;48.506;-2.750;2024-01-11T07:46:39;1.80;73.00
75621;DHT22;64574;48.506;-2.750;2024-01-11T07:49:06;1.80;73.00
75621;DHT22;64574;48.506;-2.750;2024-01-11T07:51:32;1.80;72.90
75621;DHT22;64574;48.506;-2.750;2024-01-11T07:53:59;1.80;73.40
75621;DHT22;64574;48.506;-2.750;2024-01-11T07:56:25;1.80;73.50
75621;DHT22;64574;48.506;-2.750;2024-01-11T07:58:51;1.80;73.50
75621;DHT22;64574;48.506;-2.750;2024-01-11T08:01:17;1.80;73.40
75621;DHT22;64574;48.506;-2.750;2024-01-11T08:03:42;1.80;73.60
75621;DHT22;64574;48.506;-2.750;2024-01-11T08:06:10;1.80;73.60
75621;DHT22;64574;48.506;-2.750;2024-01-11T08:08:37;1.80;73.70
75621;DHT22;64574;48.506;-2.750;2024-01-11T08:11:04;1.90;73.70
75621;DHT22;64574;48.506;-2.750;2024-01-11T08:13:30;1.90;73.70
75621;DHT22;64574;48.506;-2.750;2024-01-11T08:15:57;1.90;73.70
75621;DHT22;64574;48.506;-2.750;2024-01-11T08:18:23;1.90;73.80
75621;DHT22;64574;48.506;-2.750;2024-01-11T08:20:49;1.90;73.80
75621;DHT22;64574;48.506;-2.750;2024-01-11T08:23:15;1.90;73.80
75621;DHT22;64574;48.506;-2.750;2024-01-11T08:25:40;1.90;73.80
75621;DHT22;64574;48.506;-2.750;2024-01-11T08:28:06;1.90;73.80
75621;DHT22;64574;48.506;-2.750;2024-01-11T08:30:32;1.90;73.70
75621;DHT22;64574;48.506;-2.750;2024-01-11T08:32:58;2.00;73.60
75621;DHT22;64574;48.506;-2.750;2024-01-11T08:35:23;2.00;73.40
75621;DHT22;64574;48.506;-2.750;2024-01-11T08:37:49;2.00;73.40
75621;DHT22;64574;48.506;-2.750;2024-01-11T08:40:15;2.00;73.20
75621;DHT22;64574;48.506;-2.750;2024-01-11T08:42:41;2.00;73.30
75621;DHT22;64574;48.506;-2.750;2024-01-11T08:45:08;2.00;73.20
75621;DHT22;64574;48.506;-2.750;2024-01-11T08:47:35;2.00;73.20
75621;DHT22;64574;48.506;-2.750;2024-01-11T08:50:01;2.00;73.30
75621;DHT22;64574;48.506;-2.750;2024-01-11T08:52:31;2.00;73.40
75621;DHT22;64574;48.506;-2.750;2024-01-11T08:54:57;2.00;73.80
75621;DHT22;64574;48.506;-2.750;2024-01-11T08:57:23;2.10;73.80
75621;DHT22;64574;48.506;-2.750;2024-01-11T08:59:48;2.20;73.70
75621;DHT22;64574;48.506;-2.750;2024-01-11T09:02:14;2.30;73.60
75621;DHT22;64574;48.506;-2.750;2024-01-11T09:04:40;2.30;73.60
75621;DHT22;64574;48.506;-2.750;2024-01-11T09:07:05;2.40;73.60
75621;DHT22;64574;48.506;-2.750;2024-01-11T09:09:31;2.40;73.60
75621;DHT22;64574;48.506;-2.750;2024-01-11T09:11:57;2.40;73.60
75621;DHT22;64574;48.506;-2.750;2024-01-11T09:14:23;2.50;73.70
75621;DHT22;64574;48.506;-2.750;2024-01-11T09:16:48;2.50;73.70
75621;DHT22;64574;48.506;-2.750;2024-01-11T09:19:15;2.50;73.80
75621;DHT22;64574;48.506;-2.750;2024-01-11T09:21:41;2.50;73.90
75621;DHT22;64574;48.506;-2.750;2024-01-11T09:24:07;2.50;73.90
75621;DHT22;64574;48.506;-2.750;2024-01-11T09:26:33;2.50;74.00
75621;DHT22;64574;48.506;-2.750;2024-01-11T09:28:58;2.70;74.00
75621;DHT22;64574;48.506;-2.750;2024-01-11T09:31:24;2.70;74.00
75621;DHT22;64574;48.506;-2.750;2024-01-11T09:33:50;2.80;73.90
75621;DHT22;64574;48.506;-2.750;2024-01-11T09:36:15;2.80;73.90
75621;DHT22;64574;48.506;-2.750;2024-01-11T09:38:41;2.80;73.90
75621;DHT22;64574;48.506;-2.750;2024-01-11T09:41:09;2.80;73.80
75621;DHT22;64574;48.506;-2.750;2024-01-11T09:43:36;2.80;73.90
75621;DHT22;64574;48.506;-2.750;2024-01-11T09:46:05;2.90;74.00
75621;DHT22;64574;48.506;-2.750;2024-01-11T09:48:35;2.90;74.10
75621;DHT22;64574;48.506;-2.750;2024-01-11T09:51:02;2.90;74.10
75621;DHT22;64574;48.506;-2.750;2024-01-11T09:53:32;3.00;74.20
75621;DHT22;64574;48.506;-2.750;2024-01-11T09:55:59;3.00;74.20
75621;DHT22;64574;48.506;-2.750;2024-01-11T09:58:25;3.10;74.10
75621;DHT22;64574;48.506;-2.750;2024-01-11T10:00:55;3.10;74.20
75621;DHT22;64574;48.506;-2.750;2024-01-11T10:03:24;3.10;74.30
75621;DHT22;64574;48.506;-2.750;2024-01-11T10:05:56;3.10;74.50
75621;DHT22;64574;48.506;-2.750;2024-01-11T10:08:23;3.20;74.40
75621;DHT22;64574;48.506;-2.750;2024-01-11T10:10:49;3.20;74.50
75621;DHT22;64574;48.506;-2.750;2024-01-11T10:13:15;3.30;74.60
75621;DHT22;64574;48.506;-2.750;2024-01-11T10:15:44;3.30;74.70
75621;DHT22;64574;48.506;-2.750;2024-01-11T10:18:10;3.30;74.90
75621;DHT22;64574;48.506;-2.750;2024-01-11T10:20:36;3.40;75.00
75621;DHT22;64574;48.506;-2.750;2024-01-11T10:23:02;3.50;75.00
75621;DHT22;64574;48.506;-2.750;2024-01-11T10:25:28;3.50;75.10
75621;DHT22;64574;48.506;-2.750;2024-01-11T10:27:54;3.50;75.00
75621;DHT22;64574;48.506;-2.750;2024-01-11T10:30:20;3.50;75.00
75621;DHT22;64574;48.506;-2.750;2024-01-11T10:32:48;3.50;75.10
75621;DHT22;64574;48.506;-2.750;2024-01-11T10:35:14;3.50;75.20
75621;DHT22;64574;48.506;-2.750;2024-01-11T10:37:43;3.50;75.00
75621;DHT22;64574;48.506;-2.750;2024-01-11T10:40:10;3.50;75.00
75621;DHT22;64574;48.506;-2.750;2024-01-11T10:42:42;3.40;75.20
75621;DHT22;64574;48.506;-2.750;2024-01-11T10:45:18;3.40;75.50
75621;DHT22;64574;48.506;-2.750;2024-01-11T10:50:25;3.40;75.50
75621;DHT22;64574;48.506;-2.750;2024-01-11T10:55:33;3.50;75.20
75621;DHT22;64574;48.506;-2.750;2024-01-11T10:58:01;3.50;75.10
75621;DHT22;64574;48.506;-2.750;2024-01-11T11:00:28;3.50;74.90
75621;DHT22;64574;48.506;-2.750;2024-01-11T11:02:55;3.50;74.70
75621;DHT22;64574;48.506;-2.750;2024-01-11T11:05:21;3.50;74.60
75621;DHT22;64574;48.506;-2.750;2024-01-11T11:07:49;3.60;74.10
75621;DHT22;64574;48.506;-2.750;2024-01-11T11:10:19;3.60;73.90
75621;DHT22;64574;48.506;-2.750;2024-01-11T11:12:48;3.60;73.80
75621;DHT22;64574;48.506;-2.750;2024-01-11T11:15:14;3.60;73.90
75621;DHT22;64574;48.506;-2.750;2024-01-11T11:17:41;3.70;73.90
75621;DHT22;64574;48.506;-2.750;2024-01-11T11:20:10;3.70;73.30
75621;DHT22;64574;48.506;-2.750;2024-01-11T11:22:42;3.80;73.10
75621;DHT22;64574;48.506;-2.750;2024-01-11T11:25:11;3.80;73.00
75621;DHT22;64574;48.506;-2.750;2024-01-11T11:27:49;3.90;72.60
75621;DHT22;64574;48.506;-2.750;2024-01-11T11:30:14;3.90;72.20
75621;DHT22;64574;48.506;-2.750;2024-01-11T11:32:45;4.00;71.80
75621;DHT22;64574;48.506;-2.750;2024-01-11T11:35:11;4.00;71.40
75621;DHT22;64574;48.506;-2.750;2024-01-11T11:37:40;4.10;71.40
75621;DHT22;64574;48.506;-2.750;2024-01-11T11:40:09;4.10;71.00
75621;DHT22;64574;48.506;-2.750;2024-01-11T11:42:36;4.20;70.70
75621;DHT22;64574;48.506;-2.750;2024-01-11T11:45:02;4.20;70.50
75621;DHT22;64574;48.506;-2.750;2024-01-11T11:47:35;4.20;70.40
75621;DHT22;64574;48.506;-2.750;2024-01-11T11:50:10;4.10;70.50
75621;DHT22;64574;48.506;-2.750;2024-01-11T11:52:38;4.10;70.70
75621;DHT22;64574;48.506;-2.750;2024-01-11T11:55:05;4.10;70.90
75621;DHT22;64574;48.506;-2.750;2024-01-11T11:57:31;4.00;71.00
75621;DHT22;64574;48.506;-2.750;2024-01-11T11:59:58;4.00;71.10
75621;DHT22;64574;48.506;-2.750;2024-01-11T12:02:27;4.00;71.20
75621;DHT22;64574;48.506;-2.750;2024-01-11T12:04:53;4.00;71.50
75621;DHT22;64574;48.506;-2.750;2024-01-11T12:07:20;4.00;71.60
75621;DHT22;64574;48.506;-2.750;2024-01-11T12:09:47;4.00;71.40
75621;DHT22;64574;48.506;-2.750;2024-01-11T12:12:13;4.00;71.20
75621;DHT22;64574;48.506;-2.750;2024-01-11T12:14:38;4.00;71.20
75621;DHT22;64574;48.506;-2.750;2024-01-11T12:17:06;4.00;71.20
75621;DHT22;64574;48.506;-2.750;2024-01-11T12:19:32;4.00;71.20
75621;DHT22;64574;48.506;-2.750;2024-01-11T12:21:58;4.00;71.00
75621;DHT22;64574;48.506;-2.750;2024-01-11T12:24:24;4.00;70.90
75621;DHT22;64574;48.506;-2.750;2024-01-11T12:26:50;4.00;70.90
75621;DHT22;64574;48.506;-2.750;2024-01-11T12:29:17;4.00;70.90
75621;DHT22;64574;48.506;-2.750;2024-01-11T12:31:43;4.00;70.70
75621;DHT22;64574;48.506;-2.750;2024-01-11T12:34:11;4.10;71.00
75621;DHT22;64574;48.506;-2.750;2024-01-11T12:36:37;4.10;71.20
75621;DHT22;64574;48.506;-2.750;2024-01-11T12:39:03;4.00;71.20
75621;DHT22;64574;48.506;-2.750;2024-01-11T12:41:32;4.00;71.10
75621;DHT22;64574;48.506;-2.750;2024-01-11T12:43:58;4.00;71.20
75621;DHT22;64574;48.506;-2.750;2024-01-11T12:46:24;4.00;71.10
75621;DHT22;64574;48.506;-2.750;2024-01-11T12:48:50;4.00;70.50
75621;DHT22;64574;48.506;-2.750;2024-01-11T12:51:16;4.00;70.50
75621;DHT22;64574;48.506;-2.750;2024-01-11T12:53:45;4.00;70.40
75621;DHT22;64574;48.506;-2.750;2024-01-11T12:56:10;4.10;70.30
75621;DHT22;64574;48.506;-2.750;2024-01-11T12:58:39;4.10;70.20
75621;DHT22;64574;48.506;-2.750;2024-01-11T13:01:06;4.10;70.30
75621;DHT22;64574;48.506;-2.750;2024-01-11T13:03:37;4.20;70.30
75621;DHT22;64574;48.506;-2.750;2024-01-11T13:06:03;4.20;70.80
75621;DHT22;64574;48.506;-2.750;2024-01-11T13:08:32;4.20;71.20
75621;DHT22;64574;48.506;-2.750;2024-01-11T13:10:59;4.20;71.50
75621;DHT22;64574;48.506;-2.750;2024-01-11T13:13:26;4.10;71.60
75621;DHT22;64574;48.506;-2.750;2024-01-11T13:15:53;4.20;71.60
75621;DHT22;64574;48.506;-2.750;2024-01-11T13:18:19;4.10;71.60
75621;DHT22;64574;48.506;-2.750;2024-01-11T13:20:45;4.10;71.50
75621;DHT22;64574;48.506;-2.750;2024-01-11T13:23:15;4.10;70.80
75621;DHT22;64574;48.506;-2.750;2024-01-11T13:25:42;4.10;70.80
75621;DHT22;64574;48.506;-2.750;2024-01-11T13:28:09;4.10;70.60
75621;DHT22;64574;48.506;-2.750;2024-01-11T13:30:37;4.10;70.40
75621;DHT22;64574;48.506;-2.750;2024-01-11T13:33:03;4.20;70.40
75621;DHT22;64574;48.506;-2.750;2024-01-11T13:35:28;4.20;70.30
75621;DHT22;64574;48.506;-2.750;2024-01-11T13:37:54;4.20;70.20
75621;DHT22;64574;48.506;-2.750;2024-01-11T13:40:20;4.20;70.00
75621;DHT22;64574;48.506;-2.750;2024-01-11T13:42:46;4.20;69.90
75621;DHT22;64574;48.506;-2.750;2024-01-11T13:45:12;4.30;69.60
75621;DHT22;64574;48.506;-2.750;2024-01-11T13:47:38;4.20;69.30
75621;DHT22;64574;48.506;-2.750;2024-01-11T13:50:04;4.20;69.50
75621;DHT22;64574;48.506;-2.750;2024-01-11T13:52:30;4.30;69.60
75621;DHT22;64574;48.506;-2.750;2024-01-11T13:54:55;4.30;69.50
75621;DHT22;64574;48.506;-2.750;2024-01-11T13:57:21;4.30;69.50
75621;DHT22;64574;48.506;-2.750;2024-01-11T13:59:47;4.40;69.70
75621;DHT22;64574;48.506;-2.750;2024-01-11T14:02:13;4.40;69.90
75621;DHT22;64574;48.506;-2.750;2024-01-11T14:04:38;4.40;70.30
75621;DHT22;64574;48.506;-2.750;2024-01-11T14:07:05;4.50;70.50
75621;DHT22;64574;48.506;-2.750;2024-01-11T14:09:31;4.70;70.40
75621;DHT22;64574;48.506;-2.750;2024-01-11T14:11:57;4.80;70.30
75621;DHT22;64574;48.506;-2.750;2024-01-11T14:14:22;4.80;70.80
75621;DHT22;64574;48.506;-2.750;2024-01-11T14:16:48;4.90;71.50
75621;DHT22;64574;48.506;-2.750;2024-01-11T14:19:14;4.80;72.50
75621;DHT22;64574;48.506;-2.750;2024-01-11T14:21:40;4.70;73.40
75621;DHT22;64574;48.506;-2.750;2024-01-11T14:24:06;4.70;74.50
75621;DHT22;64574;48.506;-2.750;2024-01-11T14:26:32;4.70;74.90
75621;DHT22;64574;48.506;-2.750;2024-01-11T14:29:01;4.70;75.20
75621;DHT22;64574;48.506;-2.750;2024-01-11T14:31:28;4.70;75.40
75621;DHT22;64574;48.506;-2.750;2024-01-11T14:33:54;4.70;75.50
75621;DHT22;64574;48.506;-2.750;2024-01-11T14:36:20;4.70;75.70
75621;DHT22;64574;48.506;-2.750;2024-01-11T14:38:46;4.70;76.20
75621;DHT22;64574;48.506;-2.750;2024-01-11T14:41:12;4.70;76.50
75621;DHT22;64574;48.506;-2.750;2024-01-11T14:43:38;4.70;76.50
75621;DHT22;64574;48.506;-2.750;2024-01-11T14:46:04;4.70;76.50
75621;DHT22;64574;48.506;-2.750;2024-01-11T14:48:30;4.70;76.50
75621;DHT22;64574;48.506;-2.750;2024-01-11T14:50:57;4.70;76.60
75621;DHT22;64574;48.506;-2.750;2024-01-11T14:53:23;4.70;76.80
75621;DHT22;64574;48.506;-2.750;2024-01-11T14:55:49;4.70;77.00
75621;DHT22;64574;48.506;-2.750;2024-01-11T14:58:15;4.70;77.30
75621;DHT22;64574;48.506;-2.750;2024-01-11T15:00:42;4.70;77.50
75621;DHT22;64574;48.506;-2.750;2024-01-11T15:03:08;4.80;77.50
75621;DHT22;64574;48.506;-2.750;2024-01-11T15:05:33;4.80;77.60
75621;DHT22;64574;48.506;-2.750;2024-01-11T15:07:59;4.80;77.50
75621;DHT22;64574;48.506;-2.750;2024-01-11T15:10:25;4.80;77.50
75621;DHT22;64574;48.506;-2.750;2024-01-11T15:12:51;4.80;77.60
75621;DHT22;64574;48.506;-2.750;2024-01-11T15:15:17;4.80;77.90
75621;DHT22;64574;48.506;-2.750;2024-01-11T15:17:44;4.80;78.30
75621;DHT22;64574;48.506;-2.750;2024-01-11T15:20:10;4.80;78.50
75621;DHT22;64574;48.506;-2.750;2024-01-11T15:22:35;4.90;78.80
75621;DHT22;64574;48.506;-2.750;2024-01-11T15:25:01;4.90;78.90
75621;DHT22;64574;48.506;-2.750;2024-01-11T15:27:27;4.90;79.20
75621;DHT22;64574;48.506;-2.750;2024-01-11T15:29:52;4.90;79.40